Santos Dumont Airport

SBRJ · Rio de Janeiro, Brazil

October 7, 2022

Time Code Weather Temp. Visibility Ceiling Wind METAR/SPECI
15:00
V
29 °C 10 km+ 10,000 ft 250° 250° 6 kt METAR SBRJ 071800Z 25006KT 220V280 9999 FEW020 SCT050 BKN100 29/20 Q1005
14:00
V
25 °C 10 km+ 10,000 ft 320° 320° 5 kt METAR SBRJ 071700Z 32005KT 9999 FEW020 SCT050 BKN100 25/23 Q1006
13:00
V
24 °C 10 km+ 10,000 ft 340° 340° 7 kt METAR SBRJ 071600Z 34007KT 300V360 9999 FEW020 SCT050 BKN100 24/23 Q1007
12:00
V
24 °C 10 km+ 8,000 ft 320° 320° 7 kt METAR SBRJ 071500Z 32007KT 280V340 9999 FEW007 SCT017 BKN080 24/23 Q1008
11:00
V
24 °C 10 km+ 10,000 ft 340° 340° 8 kt METAR SBRJ 071400Z 34008KT 9999 FEW020 BKN100 24/23 Q1008
10:00
V
24 °C 10 km+ 10,000 ft 020° 020° 6 kt METAR SBRJ 071300Z 02006KT 9999 FEW020 BKN100 24/22 Q1009
09:00
M
24 °C 6 km 5,000 ft 340° 340° 5 kt METAR SBRJ 071200Z 34005KT 290V010 6000 -RA SCT020 BKN050 OVC100 24/22 Q1011
08:00
V
25 °C 9 km 5,000 ft Var Var 3 kt METAR SBRJ 071100Z VRB03KT 9000 -RA SCT020 BKN050 OVC100 25/21 Q1010
07:00
M
25 °C 7 km 5,000 ft 290° 290° 3 kt METAR SBRJ 071000Z 29003KT 230V340 7000 -RA SCT020 BKN050 OVC100 25/21 Q1010
06:00
V
23 °C 10 km+ 5,000 ft 190° 190° 9 kt METAR SBRJ 070900Z 19009KT 9999 FEW008 BKN050 BKN080 23/21 Q1008
05:00
V
24 °C 10 km+ - 190° 190° 12 kt METAR SBRJ 070800Z 19012KT 9999 FEW035 SCT100 24/21 Q1007
04:00
V
23 °C 10 km+ - 010° 010° 4 kt METAR SBRJ 070700Z 01004KT 9999 FEW030 SCT100 23/21 Q1006
03:00
V
23 °C 10 km+ 10,000 ft 360° 360° 4 kt METAR SBRJ 070600Z 36004KT 9999 FEW035 BKN100 23/22 Q1006
02:00
V
24 °C 10 km+ 10,000 ft 330° 330° 3 kt METAR SBRJ 070500Z 33003KT 9999 FEW035 BKN100 24/21 Q1006
01:00
V
24 °C 10 km+ - 350° 350° 3 kt METAR SBRJ 070400Z 35003KT 9999 FEW035 SCT100 24/21 Q1007
00:00
V
24 °C 10 km+ - Var Var 1 kt METAR SBRJ 070300Z VRB01KT CAVOK 24/20 Q1008

October 6, 2022

Time Code Weather Temp. Visibility Ceiling Wind METAR/SPECI
23:00
V
24 °C 10 km+ - 120° 120° 3 kt METAR SBRJ 070200Z 12003KT 9999 FEW040 SCT100 24/21 Q1009
22:00
V
24 °C 10 km+ - 060° 060° 6 kt METAR SBRJ 070100Z 06006KT 9999 FEW040 SCT100 24/21 Q1009
21:00
V
24 °C 10 km+ - 160° 160° 4 kt METAR SBRJ 070000Z 16004KT 120V190 CAVOK 24/21 Q1009
20:00
V
24 °C 10 km+ - 180° 180° 5 kt METAR SBRJ 062300Z 18005KT CAVOK 24/21 Q1009
19:00
V
25 °C 10 km+ - 170° 170° 7 kt METAR SBRJ 062200Z 17007KT CAVOK 25/21 Q1008
18:00
V
26 °C 10 km+ - 100° 100° 10 kt METAR SBRJ 062100Z 10010KT CAVOK 26/21 Q1007
17:00
V
26 °C 10 km+ - 170° 170° 6 kt METAR SBRJ 062000Z 17006KT 150V220 CAVOK 26/22 Q1008
16:00
V
27 °C 10 km+ - 160° 160° 7 kt METAR SBRJ 061900Z 16007KT CAVOK 27/22 Q1009
15:00
V
28 °C 10 km+ - 160° 160° 6 kt METAR SBRJ 061800Z 16006KT 9999 FEW025 28/22 Q1009
14:00
V
27 °C 10 km+ - 190° 190° 9 kt METAR SBRJ 061700Z 19009KT 9999 FEW025 27/21 Q1010
13:00
V
26 °C 10 km+ - 180° 180° 12 kt METAR SBRJ 061600Z 18012KT 9999 FEW025 26/21 Q1011
12:00
V
25 °C 10 km+ - 160° 160° 11 kt METAR SBRJ 061500Z 16011KT 9999 FEW020 25/21 Q1013
11:00
V
25 °C 10 km+ - 160° 160° 9 kt METAR SBRJ 061400Z 16009KT 9999 FEW020 25/21 Q1014
10:00
V
24 °C 10 km+ - 150° 150° 6 kt METAR SBRJ 061300Z 15006KT 9999 SCT020 24/19 Q1015
09:00
V
23 °C 10 km+ - 150° 150° 4 kt METAR SBRJ 061200Z 15004KT 130V190 9999 SCT020 23/19 Q1015
08:00
V
23 °C 10 km+ - 130° 130° 3 kt METAR SBRJ 061100Z 13003KT 9999 SCT018 23/18 Q1016
07:00
V
22 °C 10 km+ - 080° 080° 8 kt METAR SBRJ 061000Z 08008KT 9999 SCT018 22/19 Q1015
06:00
V
21 °C 10 km+ - 080° 080° 6 kt METAR SBRJ 060900Z 08006KT 9999 FEW020 21/18 Q1016
05:00
V
21 °C 10 km+ - 090° 090° 6 kt METAR SBRJ 060800Z 09006KT 9999 FEW020 SCT070 21/18 Q1015
04:00
V
21 °C 10 km+ 7,000 ft 080° 080° 5 kt METAR SBRJ 060700Z 08005KT 9999 FEW020 SCT050 BKN070 21/18 Q1015
03:00
V
21 °C 10 km+ 7,000 ft 180° 180° 3 kt METAR SBRJ 060600Z 18003KT 120V240 9999 FEW030 SCT050 BKN070 21/18 Q1015
02:00
V
21 °C 10 km+ 7,000 ft Var Var 2 kt METAR SBRJ 060500Z VRB02KT 9999 FEW030 SCT050 BKN070 21/18 Q1015
01:00
V
21 °C 10 km+ 4,500 ft 090° 090° 3 kt METAR SBRJ 060400Z 09003KT 060V120 9999 SCT030 BKN045 21/18 Q1016
00:00
V
21 °C 10 km+ 3,000 ft 090° 090° 4 kt METAR SBRJ 060300Z 09004KT 9999 SCT025 OVC030 21/18 Q1017

October 5, 2022

Time Code Weather Temp. Visibility Ceiling Wind METAR/SPECI
23:00
V
22 °C 10 km+ 3,000 ft 040° 040° 5 kt METAR SBRJ 060200Z 04005KT 9999 FEW018 SCT025 OVC030 22/19 Q1017
22:00
V
21 °C 10 km+ 3,000 ft 140° 140° 5 kt METAR SBRJ 060100Z 14005KT 9999 -RA FEW015 SCT025 BKN030 21/18 Q1017
21:00
M
21 °C 10 km+ 2,500 ft 080° 080° 3 kt METAR SBRJ 060000Z 08003KT 030V120 9999 -RA SCT013 OVC025 21/19 Q1017
20:00
M
22 °C 10 km+ 2,100 ft 110° 110° 9 kt METAR SBRJ 052300Z 11009KT 9999 -RA SCT013 OVC021 22/19 Q1016
19:00
M
22 °C 10 km+ 2,100 ft 110° 110° 10 kt METAR SBRJ 052200Z 11010KT 9999 -RA SCT013 OVC021 22/19 Q1015
18:00
M
22 °C 10 km+ 2,100 ft 110° 110° 11 kt METAR SBRJ 052100Z 11011KT 9999 SCT013 OVC021 22/19 Q1015
17:00
M
22 °C 10 km+ 2,500 ft 110° 110° 13 kt METAR SBRJ 052000Z 11013KT 9999 FEW015 SCT021 OVC025 22/19 Q1015
16:00
M
22 °C 10 km+ 2,600 ft 130° 130° 11 kt METAR SBRJ 051900Z 13011KT 9999 SCT015 OVC026 22/19 Q1014
15:00
V
23 °C 10 km+ 3,300 ft 140° 140° 10 kt METAR SBRJ 051800Z 14010KT 9999 SCT015 BKN033 BKN050 23/20 Q1014
14:00
M
23 °C 10 km+ 1,500 ft 140° 140° 8 kt METAR SBRJ 051700Z 14008KT 9999 FEW012 BKN015 OVC020 23/20 Q1014
13:00
M
22 °C 10 km+ 1,200 ft 170° 170° 10 kt METAR SBRJ 051600Z 17010KT 9999 BKN012 OVC020 22/20 Q1015
12:00
M
23 °C 10 km+ 1,500 ft 160° 160° 10 kt METAR SBRJ 051500Z 16010KT 9999 SCT013 BKN015 OVC020 23/20 Q1016
Older data

We and third parties follow your internet behavior on our website with cookies. If you continue, we assume you agree with our cookie policy. Learn more